Time;durP1;ratioP1;P1;durP2;ratioP2;P2;SDS_P1;SDS_P2;PMS_P1;PMS_P2;Temp;Humidity;BMP_temperature;BMP_pressure;BME280_temperature;BME280_humidity;BME280_pressure;Samples;Min_cycle;Max_cycle;Signal;HPM_P1;HPM_P2
2022/04/11 00:00:57;;;;;;;12.98;7.13;;;;;;;2.76;81.83;101830.72;5012766;28;20061;-86
2022/04/11 00:03:23;;;;;;;13.43;7.47;;;;;;;2.74;81.98;101830.06;5012103;28;20064;-86
2022/04/11 00:05:48;;;;;;;12.60;7.23;;;;;;;2.71;82.62;101830.44;4999332;28;20473;-86
2022/04/11 00:08:14;;;;;;;14.27;7.50;;;;;;;2.66;82.58;101822.22;4991929;28;20297;-86
2022/04/11 00:10:39;;;;;;;10.93;7.13;;;;;;;2.64;83.25;101816.28;5009754;28;20149;-86
2022/04/11 00:13:06;;;;;;;11.77;7.13;;;;;;;2.61;83.60;101817.47;5013046;28;20025;-86
2022/04/11 00:15:38;;;;;;;13.50;7.78;;;;;;;2.61;83.64;101816.63;5012209;28;20054;-86
2022/04/11 00:18:03;;;;;;;14.55;8.40;;;;;;;2.57;83.80;101814.34;5010467;28;20045;-86
2022/04/11 00:20:29;;;;;;;12.73;7.90;;;;;;;2.57;83.88;101814.34;5007514;28;20038;-85
2022/04/11 00:22:55;;;;;;;12.13;7.93;;;;;;;2.57;84.14;101822.28;5010567;28;20121;-84
2022/04/11 00:25:20;;;;;;;14.75;8.20;;;;;;;2.54;84.23;101805.94;4992433;28;20113;-85
2022/04/11 00:27:45;;;;;;;17.70;8.50;;;;;;;2.57;84.48;101805.59;5001574;28;20033;-85
2022/04/11 00:30:11;;;;;;;13.80;8.53;;;;;;;2.55;84.29;101808.44;5009777;28;20040;-85
2022/04/11 00:32:41;;;;;;;12.50;8.10;;;;;;;2.56;84.39;101804.75;5011427;28;20033;-86
2022/04/11 00:35:08;;;;;;;13.48;7.90;;;;;;;2.58;84.69;101807.25;4998193;28;20109;-85
2022/04/11 00:37:34;;;;;;;13.23;8.43;;;;;;;2.55;84.97;101797.00;4998614;28;20042;-86
2022/04/11 00:39:59;;;;;;;11.97;7.93;;;;;;;2.56;85.08;101796.00;4997705;28;20032;-86
2022/04/11 00:42:27;;;;;;;12.27;8.50;;;;;;;2.54;85.12;101790.06;5008858;28;20033;-85
2022/04/11 00:44:53;;;;;;;10.90;7.70;;;;;;;2.57;85.31;101792.38;5010630;28;20038;-85
2022/04/11 00:47:19;;;;;;;15.02;8.52;;;;;;;2.56;85.46;101788.88;5010219;28;20034;-85
2022/04/11 00:49:45;;;;;;;15.82;8.30;;;;;;;2.56;85.18;101788.06;5009746;28;20475;-85
2022/04/11 00:52:10;;;;;;;14.07;8.00;;;;;;;2.54;85.21;101780.31;5002845;28;20027;-86
2022/04/11 00:54:36;;;;;;;13.13;8.30;;;;;;;2.53;85.60;101778.69;4992411;28;20488;-86
2022/04/11 00:57:02;;;;;;;13.57;8.98;;;;;;;2.55;86.05;101771.38;4994790;28;20480;-86
2022/04/11 00:59:28;;;;;;;16.33;8.63;;;;;;;2.58;85.90;101772.84;5011103;28;20050;-86
2022/04/11 01:01:53;;;;;;;13.55;9.65;;;;;;;2.64;85.55;101776.59;5001230;28;20052;-86
2022/04/11 01:04:26;;;;;;;17.57;9.10;;;;;;;2.66;85.19;101772.75;5009380;28;20129;-85
2022/04/11 01:06:54;;;;;;;13.35;8.45;;;;;;;2.70;85.22;101784.63;5009411;28;20048;-86
2022/04/11 01:09:19;;;;;;;13.07;8.38;;;;;;;2.69;84.11;101768.94;5006089;28;20026;-86
2022/04/11 01:11:44;;;;;;;13.23;8.17;;;;;;;2.64;84.35;101760.69;4991024;28;20022;-86
2022/04/11 01:14:10;;;;;;;13.57;9.15;;;;;;;2.60;84.17;101754.13;4994781;28;20180;-86
2022/04/11 01:16:35;;;;;;;13.53;9.23;;;;;;;2.63;84.69;101764.34;5004249;28;20143;-86
2022/04/11 01:19:00;;;;;;;13.60;8.47;;;;;;;2.58;84.58;101755.13;5010672;28;20033;-87
2022/04/11 01:21:27;;;;;;;13.37;8.87;;;;;;;2.58;84.62;101765.72;5010646;28;20034;-86
2022/04/11 01:23:52;;;;;;;15.00;9.00;;;;;;;2.57;84.90;101758.78;5007756;28;20037;-86
2022/04/11 01:26:22;;;;;;;14.17;8.73;;;;;;;2.58;84.13;101757.78;4995018;28;20035;-86
2022/04/11 01:28:48;;;;;;;15.95;9.00;;;;;;;2.58;84.08;101749.03;5004235;28;20034;-86
2022/04/11 01:31:15;;;;;;;15.25;9.35;;;;;;;2.56;84.57;101759.78;5009545;28;20116;-86
2022/04/11 01:33:40;;;;;;;12.33;8.73;;;;;;;2.55;84.34;101759.97;5007008;28;20022;-86
2022/04/11 01:36:06;;;;;;;14.07;8.43;;;;;;;2.52;84.59;101749.75;5009420;28;20303;-86
2022/04/11 01:38:31;;;;;;;13.07;7.93;;;;;;;2.51;84.05;101759.53;5009838;28;20029;-86
2022/04/11 01:40:57;;;;;;;12.87;8.67;;;;;;;2.48;84.43;101759.88;5008721;28;20045;-85
2022/04/11 01:43:24;;;;;;;13.10;8.80;;;;;;;2.47;84.36;101760.88;5009089;28;20427;-85
2022/04/11 01:45:50;;;;;;;13.77;8.40;;;;;;;2.45;85.27;101760.22;5009098;28;20026;-86
2022/04/11 01:48:16;;;;;;;13.30;8.83;;;;;;;2.45;84.87;101754.94;5008950;28;20526;-87
2022/04/11 01:50:42;;;;;;;13.30;9.10;;;;;;;2.43;84.97;101756.94;5005640;28;20301;-87
2022/04/11 01:53:12;;;;;;;12.75;8.45;;;;;;;2.41;85.05;101761.59;4994542;28;20499;-87
2022/04/11 01:55:38;;;;;;;11.35;8.98;;;;;;;2.40;85.09;101758.13;4996858;28;20100;-87
2022/04/11 01:58:05;;;;;;;14.33;8.97;;;;;;;2.40;84.97;101762.59;5006198;28;20029;-86
2022/04/11 02:00:32;;;;;;;13.87;8.70;;;;;;;2.35;85.06;101757.03;5003995;28;20288;-85
2022/04/11 02:02:59;;;;;;;11.35;8.40;;;;;;;2.35;85.26;101759.69;5004391;28;20045;-86
2022/04/11 02:05:27;;;;;;;14.10;9.18;;;;;;;2.31;86.09;101756.56;5010617;28;20026;-85
2022/04/11 02:07:54;;;;;;;14.43;9.73;;;;;;;2.26;86.16;101748.34;5010663;28;20026;-86
2022/04/11 02:10:20;;;;;;;13.52;9.23;;;;;;;2.22;85.26;101747.88;5009405;28;20084;-86
2022/04/11 02:12:47;;;;;;;12.13;8.18;;;;;;;2.20;86.00;101752.50;5007049;28;20046;-85
2022/04/11 02:15:12;;;;;;;16.00;9.25;;;;;;;2.15;85.86;101754.91;5010664;28;20028;-85
2022/04/11 02:17:38;;;;;;;16.27;9.30;;;;;;;2.08;86.09;101746.00;5010304;28;20109;-85
2022/04/11 02:20:05;;;;;;;14.20;9.20;;;;;;;2.07;86.12;101749.66;5008491;28;20141;-85
2022/04/11 02:22:45;;;;;;;14.65;9.68;;;;;;;2.01;86.03;101743.28;5009430;28;20441;-86
2022/04/11 02:25:11;;;;;;;15.65;9.43;;;;;;;1.96;86.49;101746.44;4991897;28;20089;-85
2022/04/11 02:27:37;;;;;;;12.52;8.90;;;;;;;1.94;86.28;101748.44;4994968;28;20026;-86
2022/04/11 02:30:03;;;;;;;13.67;9.70;;;;;;;1.86;86.37;101750.34;5002476;28;20050;-85
2022/04/11 02:32:28;;;;;;;12.85;9.60;;;;;;;1.79;86.85;101751.03;4989400;28;20037;-85
2022/04/11 02:34:54;;;;;;;14.37;9.40;;;;;;;1.76;86.98;101761.13;4991044;28;20042;-85
2022/04/11 02:37:19;;;;;;;17.37;9.57;;;;;;;1.70;87.16;101753.91;4994406;28;20026;-86
2022/04/11 02:39:44;;;;;;;14.33;9.90;;;;;;;1.61;87.24;101751.34;4999428;28;20495;-86
2022/04/11 02:42:09;;;;;;;14.30;9.53;;;;;;;1.57;87.74;101749.19;5018136;28;20038;-86
2022/04/11 02:44:35;;;;;;;13.67;9.47;;;;;;;1.53;88.24;101747.91;5016947;28;20080;-86
2022/04/11 02:47:00;;;;;;;14.23;9.33;;;;;;;1.47;88.45;101741.50;5019523;28;20034;-85
2022/04/11 02:49:25;;;;;;;15.20;9.27;;;;;;;1.41;88.56;101737.72;5012477;28;20100;-86
2022/04/11 02:51:50;;;;;;;16.73;9.13;;;;;;;1.33;88.74;101738.59;5006811;28;20503;-86
2022/04/11 02:54:16;;;;;;;14.53;9.10;;;;;;;1.28;89.02;101740.94;5010445;28;20038;-86
2022/04/11 02:56:41;;;;;;;13.90;9.70;;;;;;;1.24;89.31;101744.94;5010029;28;20021;-86
2022/04/11 02:59:06;;;;;;;12.70;8.90;;;;;;;1.17;89.43;101739.53;5005855;28;20144;-86
2022/04/11 03:01:41;;;;;;;14.47;9.23;;;;;;;1.14;89.48;101745.16;5002533;28;20099;-90
2022/04/11 03:04:07;;;;;;;15.93;9.25;;;;;;;1.09;89.69;101734.28;5027724;28;20120;-89
2022/04/11 03:06:32;;;;;;;15.57;9.67;;;;;;;1.05;89.91;101739.09;5017957;28;20057;-89
2022/04/11 03:08:57;;;;;;;14.95;10.05;;;;;;;0.99;90.27;101728.41;5011456;28;20053;-89
2022/04/11 03:11:23;;;;;;;15.87;9.90;;;;;;;1.01;90.57;101729.03;5011462;28;20028;-91
2022/04/11 03:13:48;;;;;;;16.37;10.37;;;;;;;0.94;90.80;101730.72;4998962;28;20113;-89
2022/04/11 03:16:13;;;;;;;16.57;10.37;;;;;;;0.90;90.77;101727.59;4997804;28;20026;-90
2022/04/11 03:18:40;;;;;;;16.60;9.73;;;;;;;0.87;91.02;101728.75;5012273;28;20029;-91
2022/04/11 03:21:05;;;;;;;16.55;10.00;;;;;;;0.83;90.94;101729.28;5021369;28;20058;-91
2022/04/11 03:23:30;;;;;;;13.67;9.50;;;;;;;0.75;90.88;101730.94;5006893;28;20040;-91
2022/04/11 03:25:56;;;;;;;16.07;10.13;;;;;;;0.69;91.58;101731.63;5032959;28;20474;-91
2022/04/11 03:28:21;;;;;;;15.03;9.60;;;;;;;0.67;91.77;101727.50;5000398;28;20030;-88
2022/04/11 03:30:46;;;;;;;21.17;11.13;;;;;;;0.59;92.35;101725.72;4995031;28;20034;-89
2022/04/11 03:33:11;;;;;;;15.80;9.90;;;;;;;0.58;91.99;101734.63;5000538;28;20086;-89
2022/04/11 03:35:38;;;;;;;18.20;10.93;;;;;;;0.55;92.61;101737.59;5014530;28;20011;-89
2022/04/11 03:38:03;;;;;;;13.95;9.07;;;;;;;0.57;92.45;101732.97;5019368;28;20026;-89
2022/04/11 03:40:28;;;;;;;14.73;9.93;;;;;;;0.51;92.29;101736.28;5026742;28;20015;-89
2022/04/11 03:42:54;;;;;;;21.50;11.07;;;;;;;0.52;92.63;101735.31;5014801;28;20038;-89
2022/04/11 03:45:19;;;;;;;17.30;10.27;;;;;;;0.47;92.48;101722.59;5015578;28;20073;-89
2022/04/11 03:47:45;;;;;;;15.47;10.53;;;;;;;0.45;92.46;101733.31;5012413;28;20406;-90
2022/04/11 03:50:11;;;;;;;16.63;9.88;;;;;;;0.42;92.66;101732.84;5015701;28;20561;-89
2022/04/11 03:52:36;;;;;;;19.37;9.87;;;;;;;0.35;92.37;101734.50;5022707;28;20022;-89
2022/04/11 03:55:04;;;;;;;17.40;9.73;;;;;;;0.34;92.53;101732.84;5014770;28;20091;-89
2022/04/11 03:57:29;;;;;;;17.30;10.18;;;;;;;0.33;93.13;101733.84;5010234;28;20038;-89
2022/04/11 03:59:54;;;;;;;19.63;10.33;;;;;;;0.27;92.78;101733.50;4995674;28;20040;-88
2022/04/11 04:02:20;;;;;;;13.48;9.40;;;;;;;0.24;92.83;101738.31;4995071;28;20085;-88
2022/04/11 04:04:45;;;;;;;16.27;10.17;;;;;;;0.17;92.94;101729.44;5004834;28;20061;-89
2022/04/11 04:07:12;;;;;;;15.67;9.77;;;;;;;0.16;93.12;101733.06;5013465;28;20026;-89
2022/04/11 04:09:38;;;;;;;15.35;10.10;;;;;;;0.09;93.26;101731.06;5020482;28;20029;-90
2022/04/11 04:12:04;;;;;;;19.53;11.60;;;;;;;0.11;93.75;101736.16;5013770;28;20050;-89
2022/04/11 04:14:30;;;;;;;14.80;10.57;;;;;;;0.12;93.94;101732.53;5012107;28;20042;-89
2022/04/11 04:16:55;;;;;;;17.85;9.90;;;;;;;0.12;93.47;101724.63;5028026;28;20049;-90
2022/04/11 04:19:21;;;;;;;14.60;10.10;;;;;;;0.12;94.04;101728.09;5015126;28;20018;-94
2022/04/11 04:21:46;;;;;;;17.80;10.10;;;;;;;0.09;93.83;101725.00;5016686;28;20029;-92
2022/04/11 04:24:11;;;;;;;14.80;10.40;;;;;;;0.11;94.34;101722.97;5001947;28;20605;-91
2022/04/11 04:26:39;;;;;;;16.67;10.83;;;;;;;0.11;94.31;101718.56;4992883;28;20034;-92
2022/04/11 04:29:05;;;;;;;18.48;10.35;;;;;;;0.12;94.46;101725.47;5001380;28;20030;-93
2022/04/11 04:31:32;;;;;;;16.87;10.43;;;;;;;0.14;94.40;101718.22;5012620;28;20033;-90
2022/04/11 04:33:57;;;;;;;18.40;10.63;;;;;;;0.18;94.95;101718.72;5004619;28;20448;-89
2022/04/11 04:36:22;;;;;;;14.77;10.70;;;;;;;0.14;94.29;101720.88;5010740;28;20030;-87
2022/04/11 04:38:47;;;;;;;19.93;10.83;;;;;;;0.14;94.17;101718.22;5000560;28;20034;-92
2022/04/11 04:41:13;;;;;;;14.87;10.30;;;;;;;0.08;94.10;101716.25;4995806;28;20043;-92
2022/04/11 04:43:39;;;;;;;21.03;10.63;;;;;;;0.07;94.09;101719.88;5009882;28;20070;-90
2022/04/11 04:46:04;;;;;;;15.82;10.35;;;;;;;0.01;94.41;101720.53;5006651;28;20021;-90
2022/04/11 04:48:30;;;;;;;16.73;10.23;;;;;;;0.00;94.60;101713.63;5002599;28;20121;-92
2022/04/11 04:50:56;;;;;;;17.13;10.30;;;;;;;0.01;94.58;101715.25;4993816;28;20037;-92
2022/04/11 04:53:22;;;;;;;18.63;9.98;;;;;;;0.01;94.43;101709.16;4994068;28;20034;-91
2022/04/11 04:55:47;;;;;;;15.40;10.07;;;;;;;-0.03;94.62;101716.59;4999791;28;20453;-91
2022/04/11 04:58:12;;;;;;;18.67;10.70;;;;;;;-0.07;94.35;101707.38;5011118;28;20080;-89
2022/04/11 05:00:37;;;;;;;18.20;10.73;;;;;;;-0.07;94.64;101713.44;5006396;28;20023;-91
2022/04/11 05:03:03;;;;;;;21.77;10.70;;;;;;;-0.08;94.95;101708.34;4994724;28;20370;-91
2022/04/11 05:05:28;;;;;;;17.43;10.53;;;;;;;-0.03;95.57;101708.69;5019390;28;20057;-91
2022/04/11 05:07:54;;;;;;;17.77;10.50;;;;;;;-0.01;95.09;101706.72;5015572;28;20026;-91
2022/04/11 05:10:19;;;;;;;19.33;11.13;;;;;;;0.01;95.38;101702.06;5012310;28;20059;-90
2022/04/11 05:12:48;;;;;;;19.77;10.70;;;;;;;0.05;94.94;101706.03;5011184;28;20065;-90
2022/04/11 05:15:14;;;;;;;24.23;10.80;;;;;;;0.05;95.29;101705.22;5001088;28;20034;-90
2022/04/11 05:17:40;;;;;;;16.00;10.65;;;;;;;0.07;95.11;101703.25;5009818;28;20083;-91
2022/04/11 05:20:07;;;;;;;17.50;10.82;;;;;;;0.09;94.75;101706.53;5010289;28;20117;-91
2022/04/11 05:22:32;;;;;;;21.00;10.80;;;;;;;0.11;94.70;101702.75;5010363;28;20026;-90
2022/04/11 05:24:58;;;;;;;15.67;10.27;;;;;;;0.14;94.88;101697.13;4990684;28;20026;-91
2022/04/11 05:27:23;;;;;;;18.93;10.20;;;;;;;0.23;95.14;101705.03;4992246;28;20445;-90
2022/04/11 05:29:49;;;;;;;21.60;11.05;;;;;;;0.27;95.08;101696.59;4992179;28;20038;-90
2022/04/11 05:32:14;;;;;;;19.30;11.20;;;;;;;0.34;94.83;101699.41;4992499;28;20445;-89
2022/04/11 05:34:39;;;;;;;16.47;10.67;;;;;;;0.39;94.72;101696.25;4992851;28;20101;-91
2022/04/11 05:37:06;;;;;;;15.37;9.80;;;;;;;0.44;94.55;101700.03;4992459;28;20470;-90
2022/04/11 05:39:31;;;;;;;17.40;10.43;;;;;;;0.48;94.28;101699.69;5008905;28;20402;-90
2022/04/11 05:41:56;;;;;;;18.63;10.77;;;;;;;0.53;94.11;101703.47;5007511;28;20015;-90
2022/04/11 05:44:22;;;;;;;19.90;11.43;;;;;;;0.60;94.19;101700.97;5002852;28;20034;-94
2022/04/11 05:46:52;;;;;;;15.00;10.27;;;;;;;0.67;94.16;101706.41;5012644;28;20447;-90
2022/04/11 05:49:21;;;;;;;16.67;10.07;;;;;;;0.76;94.01;101710.66;5001696;28;20041;-90
2022/04/11 05:51:47;;;;;;;19.03;10.50;;;;;;;0.84;93.74;101699.25;5000306;28;20320;-91
2022/04/11 05:54:12;;;;;;;19.85;11.10;;;;;;;0.95;93.77;101701.50;5009913;28;20080;-89
2022/04/11 05:56:38;;;;;;;19.47;10.40;;;;;;;1.07;93.96;101704.59;4999123;28;20034;-92
2022/04/11 05:59:05;;;;;;;14.68;9.98;;;;;;;1.23;92.88;101703.69;5006060;28;20025;-95
2022/04/11 06:01:31;;;;;;;18.23;9.67;;;;;;;1.41;92.15;101708.69;5020176;28;20030;-96
2022/04/11 06:03:56;;;;;;;14.60;10.03;;;;;;;1.56;90.97;101708.75;5013696;28;20285;-90
2022/04/11 06:06:23;;;;;;;17.92;9.10;;;;;;;1.74;90.08;101705.00;5013695;28;20100;-94
2022/04/11 06:08:48;;;;;;;11.93;8.87;;;;;;;1.88;88.40;101696.28;5005514;28;20382;-92
2022/04/11 06:11:14;;;;;;;15.60;9.10;;;;;;;2.07;87.50;101704.72;5013979;28;20284;-91
2022/04/11 06:13:45;;;;;;;17.83;9.00;;;;;;;2.23;86.85;101704.56;5009680;28;20026;-91
2022/04/11 06:16:11;;;;;;;15.05;8.93;;;;;;;2.36;86.12;101700.47;4995117;28;20538;-92
2022/04/11 06:18:36;;;;;;;14.65;8.50;;;;;;;2.46;85.50;101708.97;5016773;28;20042;-93
2022/04/11 06:21:01;;;;;;;12.57;8.37;;;;;;;2.63;84.83;101706.97;5008020;28;20082;-96
2022/04/11 06:23:27;;;;;;;13.87;8.90;;;;;;;2.85;83.68;101707.84;5016113;28;20119;-94
2022/04/11 06:25:52;;;;;;;19.03;8.50;;;;;;;2.96;83.39;101701.28;4991585;28;20036;-92
2022/04/11 06:28:19;;;;;;;13.93;8.15;;;;;;;3.17;82.54;101707.63;5006932;28;20505;-93
2022/04/11 06:30:44;;;;;;;11.20;7.83;;;;;;;3.32;81.56;101704.91;5008960;28;20038;-92
2022/04/11 06:33:26;;;;;;;12.40;7.63;;;;;;;3.43;81.76;101703.59;4993433;28;20638;-94
2022/04/11 06:35:51;;;;;;;14.63;7.83;;;;;;;3.54;80.18;101695.16;5005713;28;20033;-94
2022/04/11 06:38:16;;;;;;;15.07;8.47;;;;;;;3.74;78.49;101700.63;4998516;28;20383;-93
2022/04/11 06:40:41;;;;;;;14.63;7.57;;;;;;;3.86;78.73;101703.59;5023937;28;20034;-92
2022/04/11 06:43:07;;;;;;;13.57;7.70;;;;;;;3.93;78.67;101706.31;5017509;28;20042;-93
2022/04/11 06:45:32;;;;;;;10.47;7.20;;;;;;;3.98;77.90;101695.94;5002253;28;20053;-93
2022/04/11 06:47:57;;;;;;;10.43;7.00;;;;;;;4.07;77.97;101700.09;4996364;28;20050;-94
2022/04/11 06:50:23;;;;;;;11.93;7.23;;;;;;;4.15;77.42;101695.66;5003282;28;20034;-92
2022/04/11 06:52:48;;;;;;;10.70;6.63;;;;;;;4.27;76.77;101709.22;5008155;28;20033;-92
2022/04/11 06:55:13;;;;;;;11.97;6.80;;;;;;;4.33;76.25;101711.06;5011824;28;20296;-92
2022/04/11 06:57:39;;;;;;;10.30;6.83;;;;;;;4.37;76.71;101713.16;4995447;28;20373;-87
2022/04/11 07:00:06;;;;;;;11.50;6.90;;;;;;;4.49;76.69;101721.38;5005288;28;20034;-92
2022/04/11 07:02:31;;;;;;;13.57;7.32;;;;;;;4.66;75.92;101724.56;5000072;28;21591;-92
2022/04/11 07:04:56;;;;;;;11.83;7.90;;;;;;;4.80;75.53;101722.81;4994985;28;20030;-91
2022/04/11 07:07:22;;;;;;;11.77;6.87;;;;;;;4.98;74.39;101724.91;4996073;28;20029;-93
2022/04/11 07:09:47;;;;;;;12.50;7.10;;;;;;;5.06;74.42;101728.41;5000582;28;20022;-90
2022/04/11 07:12:15;;;;;;;10.03;6.33;;;;;;;5.14;74.08;101725.56;5009858;28;20299;-95
2022/04/11 07:14:41;;;;;;;17.08;6.85;;;;;;;5.30;74.16;101719.09;5015066;28;20030;-95
2022/04/11 07:17:06;;;;;;;11.83;6.40;;;;;;;5.40;74.82;101700.91;5167007;23;20099;-91
2022/04/11 07:19:31;;;;;;;16.37;7.40;;;;;;;5.60;73.29;101708.09;5035102;28;20087;-93
2022/04/11 07:21:57;;;;;;;12.93;6.50;;;;;;;5.69;73.33;101708.72;5032807;28;20037;-86
2022/04/11 07:24:23;;;;;;;13.20;6.10;;;;;;;5.71;72.34;101704.03;5024355;28;20033;-88
2022/04/11 07:26:48;;;;;;;10.80;6.57;;;;;;;5.75;72.36;101705.25;5014538;28;20033;-90
2022/04/11 07:29:13;;;;;;;9.57;5.87;;;;;;;5.83;71.17;101702.41;5014083;28;20049;-88
2022/04/11 07:31:39;;;;;;;9.83;5.53;;;;;;;5.85;71.20;101705.66;5024378;28;20037;-91
2022/04/11 07:34:04;;;;;;;10.00;6.50;;;;;;;5.88;71.56;101696.47;5007236;28;20030;-90
2022/04/11 07:36:29;;;;;;;8.90;6.50;;;;;;;5.97;72.02;101691.75;5003622;28;20072;-91
2022/04/11 07:38:56;;;;;;;10.10;6.07;;;;;;;6.04;71.36;101692.59;5012821;28;20030;-90
2022/04/11 07:41:22;;;;;;;9.52;5.63;;;;;;;6.19;70.91;101703.03;5012537;28;20064;-89
2022/04/11 07:43:47;;;;;;;12.00;5.53;;;;;;;6.26;70.38;101697.69;5009678;28;20057;-86
2022/04/11 08:12:37;;;;;;;14.33;5.40;;;;;;;7.64;66.06;101674.31;5770071;22;20670;-85
2022/04/11 08:15:11;;;;;;;7.43;4.82;;;;;;;7.71;64.59;101652.91;5031882;28;20466;-85
2022/04/11 08:17:36;;;;;;;8.50;4.13;;;;;;;7.88;63.81;101663.84;5033084;28;20029;-85
2022/04/11 08:20:03;;;;;;;8.17;4.40;;;;;;;8.02;63.48;101660.03;5016378;28;20064;-83
2022/04/11 08:22:28;;;;;;;8.00;4.50;;;;;;;8.12;62.40;101645.34;5012823;28;20022;-83
2022/04/11 08:24:53;;;;;;;8.02;4.07;;;;;;;8.29;64.27;101662.41;5012452;28;20144;-84
2022/04/11 08:27:19;;;;;;;10.20;4.53;;;;;;;8.47;62.74;101658.13;5011044;28;20092;-83
2022/04/11 08:29:44;;;;;;;8.37;4.30;;;;;;;8.62;62.56;101658.59;5011663;28;20040;-84
2022/04/11 08:32:12;;;;;;;11.67;4.20;;;;;;;8.77;61.24;101649.34;5012668;28;20117;-83
2022/04/11 08:34:37;;;;;;;8.48;4.68;;;;;;;8.79;60.80;101642.75;4993487;28;20040;-79
2022/04/11 08:37:03;;;;;;;8.70;4.10;;;;;;;8.94;60.67;101655.72;4993237;28;20126;-85
2022/04/11 08:39:28;;;;;;;6.28;3.60;;;;;;;9.03;59.94;101652.72;4980313;28;20427;-83
2022/04/11 08:41:59;;;;;;;6.03;3.40;;;;;;;9.09;59.33;101649.97;5008556;28;20022;-86
2022/04/11 08:44:26;;;;;;;5.47;2.90;;;;;;;9.14;57.35;101637.78;5006994;28;20033;-86
2022/04/11 08:46:54;;;;;;;7.85;3.40;;;;;;;9.25;56.89;101639.66;4994861;28;20058;-87
2022/04/11 08:49:20;;;;;;;8.50;3.47;;;;;;;9.35;57.29;101644.44;5008259;28;20105;-86
2022/04/11 08:51:46;;;;;;;8.53;3.47;;;;;;;9.49;57.68;101640.53;5012732;28;20061;-82
2022/04/11 08:54:13;;;;;;;8.20;3.47;;;;;;;9.62;56.72;101644.03;5012460;28;20050;-81
2022/04/11 08:56:39;;;;;;;6.38;3.42;;;;;;;9.73;57.64;101645.91;5011091;28;20503;-81
2022/04/11 08:59:05;;;;;;;8.00;3.17;;;;;;;9.85;55.76;101646.75;5011516;28;20028;-81
2022/04/11 09:01:34;;;;;;;9.57;3.20;;;;;;;9.97;54.59;101640.56;5011842;28;20018;-81
2022/04/11 09:03:59;;;;;;;6.32;3.03;;;;;;;10.05;53.16;101640.19;5011868;28;20105;-81
2022/04/11 09:06:24;;;;;;;9.13;3.13;;;;;;;10.15;54.65;101645.78;5009404;28;20069;-80
2022/04/11 09:08:54;;;;;;;5.77;2.83;;;;;;;10.33;54.52;101653.88;5254910;22;20030;-81
2022/04/11 09:11:46;;;;;;;7.60;3.43;;;;;;;10.49;54.38;101650.53;5012254;28;20276;-80
2022/04/11 09:14:12;;;;;;;9.15;2.80;;;;;;;10.59;52.62;101647.25;5020159;28;20112;-93
2022/04/11 09:16:51;;;;;;;6.10;3.23;;;;;;;10.68;54.28;101647.69;5028379;28;20056;-86
2022/04/11 09:19:24;;;;;;;5.15;2.55;;;;;;;10.73;51.18;101627.16;5369491;22;20045;-86
2022/04/11 09:25:23;;;;;;;6.63;2.78;;;;;;;10.98;50.57;101625.97;5029266;22;20053;-86
2022/04/11 09:28:06;;;;;;;4.70;2.60;;;;;;;11.04;49.57;101627.69;4996863;28;20034;-85
2022/04/11 09:30:32;;;;;;;6.28;2.72;;;;;;;11.11;50.63;101618.69;5011800;28;20036;-87
2022/04/11 09:32:58;;;;;;;9.07;2.92;;;;;;;11.17;50.19;101617.72;5013914;28;20040;-87
2022/04/11 09:35:43;;;;;;;4.30;2.87;;;;;;;11.20;47.46;101606.50;5024072;28;20258;-89
2022/04/11 09:39:08;;;;;;;2.97;2.60;;;;;;;11.24;48.88;101610.34;5024473;28;20021;-86
2022/04/11 09:41:41;;;;;;;4.35;1.90;;;;;;;11.38;47.62;101596.59;5028321;28;20396;-86
2022/04/11 09:44:34;;;;;;;3.75;2.30;;;;;;;11.44;47.28;101601.00;5025441;28;20113;-86
2022/04/11 09:47:06;;;;;;;6.20;2.33;;;;;;;11.53;46.82;101591.47;5014905;28;20029;-87
2022/04/11 09:50:18;;;;;;;4.23;2.47;;;;;;;11.62;49.07;101592.69;5012681;28;20280;-87
2022/04/11 09:53:39;;;;;;;2.65;2.05;;;;;;;11.78;46.01;101603.63;5016653;28;20611;-87
2022/04/11 10:11:48;;;;;;;7.15;2.55;;;;;;;12.22;43.60;101571.50;5120535;22;20060;-86
2022/04/11 10:15:08;;;;;;;4.63;2.90;;;;;;;12.40;43.29;101582.97;5026054;28;20448;-86
2022/04/11 10:21:10;;;;;;;5.77;3.07;;;;;;;12.44;42.63;101559.09;5009101;28;20272;-86
2022/04/11 10:27:22;;;;;;;5.22;2.42;;;;;;;12.89;43.49;101568.66;5006893;28;20041;-86
2022/04/11 10:36:37;;;;;;;7.00;2.47;;;;;;;13.30;41.56;101557.44;4998775;28;20037;-87
2022/04/11 10:39:39;;;;;;;5.32;2.55;;;;;;;13.35;40.98;101548.59;4995731;28;20030;-88
2022/04/11 10:42:45;;;;;;;7.47;2.80;;;;;;;13.42;40.28;101552.69;4996010;28;20092;-86
2022/04/11 10:45:44;;;;;;;4.05;2.22;;;;;;;13.56;42.00;101560.31;4995711;28;20026;-86
2022/04/11 10:48:13;;;;;;;6.07;2.47;;;;;;;13.76;39.94;101546.97;4995793;28;20053;-86
2022/04/11 10:50:43;;;;;;;7.93;2.80;;;;;;;13.82;39.98;101555.09;4994975;28;20273;-86
2022/04/11 10:53:24;;;;;;;5.10;2.35;;;;;;;13.86;41.03;101554.28;4994935;28;20034;-87
2022/04/11 10:56:06;;;;;;;6.95;2.58;;;;;;;13.89;40.00;101548.38;4995266;28;20031;-87
2022/04/11 11:01:46;;;;;;;5.63;2.60;;;;;;;13.89;39.80;101543.00;5298424;22;20119;-87
2022/04/11 11:04:47;;;;;;;6.05;2.72;;;;;;;14.04;40.84;101533.34;5014569;28;20038;-86
2022/04/11 11:18:47;;;;;;;8.40;2.40;;;;;;;14.23;39.12;101507.53;5043346;22;20402;-82
2022/04/11 11:21:17;;;;;;;4.72;2.30;;;;;;;14.41;37.29;101504.63;5014017;28;20033;-81
2022/04/11 11:24:06;;;;;;;4.55;2.15;;;;;;;14.51;38.52;101486.59;5012607;28;20126;-82
2022/04/11 11:26:45;;;;;;;3.63;2.50;;;;;;;14.62;38.35;101484.69;5010540;28;20112;-82
2022/04/11 11:29:33;;;;;;;9.88;2.65;;;;;;;14.63;36.21;101480.91;5012242;28;20117;-81
2022/04/11 11:32:04;;;;;;;4.60;2.38;;;;;;;14.66;36.41;101477.66;5002767;28;20045;-81
2022/04/11 11:35:12;;;;;;;4.15;2.40;;;;;;;14.77;37.17;101469.63;5253595;22;20124;-81
2022/04/11 11:40:50;;;;;;;6.10;2.42;;;;;;;14.86;36.96;101451.00;5229289;22;20068;-82
2022/04/11 11:43:22;;;;;;;5.23;2.53;;;;;;;14.94;37.08;101435.06;5032166;28;20670;-82
2022/04/11 11:46:18;;;;;;;7.20;2.73;;;;;;;15.18;37.18;101452.56;5030887;28;20292;-81
2022/04/11 11:49:34;;;;;;;4.80;2.70;;;;;;;15.05;36.88;101448.53;5033642;28;20412;-80
2022/04/11 11:52:31;;;;;;;5.05;2.92;;;;;;;15.12;36.79;101443.69;5039021;28;20045;-80
2022/04/11 11:55:06;;;;;;;4.40;2.28;;;;;;;15.16;35.97;101431.22;5034072;28;20033;-80
2022/04/11 12:00:13;;;;;;;6.25;2.55;;;;;;;15.17;34.38;101413.16;5222215;22;20063;-81
2022/04/11 12:05:32;;;;;;;6.93;3.20;;;;;;;15.44;36.46;101429.00;5032333;28;20052;-82
2022/04/11 12:08:13;;;;;;;11.38;3.63;;;;;;;15.51;36.06;101424.13;5024453;28;20034;-82
2022/04/11 12:10:43;;;;;;;4.40;3.17;;;;;;;15.66;35.45;101411.63;5010932;28;20022;-83
2022/04/11 12:13:08;;;;;;;7.13;4.07;;;;;;;15.75;35.55;101420.75;5011671;28;20304;-82
2022/04/11 12:15:35;;;;;;;7.03;4.13;;;;;;;15.63;35.32;101404.06;5009978;28;20473;-82
2022/04/11 12:18:03;;;;;;;6.65;4.30;;;;;;;15.75;37.63;101407.22;5012415;28;20022;-82
2022/04/11 12:20:33;;;;;;;7.97;4.20;;;;;;;15.75;36.12;101412.63;5011498;28;20428;-83
2022/04/11 12:23:07;;;;;;;8.93;4.03;;;;;;;15.65;35.54;101410.78;5011801;28;20033;-82
2022/04/11 12:25:35;;;;;;;6.37;4.83;;;;;;;15.58;36.45;101402.22;5010506;28;20300;-81
2022/04/11 12:28:20;;;;;;;7.72;3.85;;;;;;;15.65;36.14;101404.59;5011039;28;20030;-82
2022/04/11 12:30:47;;;;;;;7.88;4.85;;;;;;;15.60;35.63;101414.34;5010710;28;20030;-81
2022/04/11 12:33:35;;;;;;;9.85;5.05;;;;;;;15.60;36.76;101403.53;5010359;28;20037;-82
2022/04/11 12:36:12;;;;;;;7.88;4.63;;;;;;;15.62;36.33;101407.84;5003117;28;20034;-82
2022/04/11 12:38:50;;;;;;;8.07;5.30;;;;;;;15.68;36.71;101394.03;5016534;28;20028;-81
2022/04/11 12:41:32;;;;;;;11.75;5.53;;;;;;;15.82;36.28;101391.53;5011461;28;20041;-81
2022/04/11 12:44:07;;;;;;;8.50;5.60;;;;;;;15.67;36.13;101394.31;5009681;28;20121;-82
2022/04/11 12:46:34;;;;;;;10.20;5.72;;;;;;;15.68;36.39;101383.22;5011877;28;20057;-82
2022/04/11 12:49:01;;;;;;;10.00;5.63;;;;;;;15.55;35.93;101379.25;5010994;28;20485;-82
2022/04/11 12:51:28;;;;;;;7.93;5.50;;;;;;;15.55;37.08;101383.84;5009870;28;20379;-82
2022/04/11 12:54:13;;;;;;;7.72;5.00;;;;;;;15.45;36.33;101387.41;5010195;28;20040;-82
2022/04/11 12:56:47;;;;;;;10.05;5.30;;;;;;;15.60;35.79;101389.22;5011984;28;20112;-82